Time;durP1;ratioP1;P1;durP2;ratioP2;P2;SDS_P1;SDS_P2;PMS_P1;PMS_P2;Temp;Humidity;BMP_temperature;BMP_pressure;BME280_temperature;BME280_humidity;BME280_pressure;Samples;Min_cycle;Max_cycle;Signal;HPM_P1;HPM_P2
2021/12/11 00:02:00;;;;;;;1.03;1.03;;;4.90;99.90;4.30;100435.00;;;;5098029;28;20184;-77
2021/12/11 00:04:33;;;;;;;4.00;3.70;;;4.80;99.90;4.50;100302.00;;;;5098093;28;20620;-78
2021/12/11 00:07:13;;;;;;;1.80;1.70;;;4.80;99.90;4.40;100451.00;;;;5113310;28;20173;-78
2021/12/11 00:10:09;;;;;;;3.30;2.77;;;4.70;99.90;4.20;100455.00;;;;5097646;28;20218;-77
2021/12/11 00:12:51;;;;;;;1.03;1.03;;;4.70;99.90;4.60;100454.00;;;;5095750;28;20212;-78
2021/12/11 00:15:38;;;;;;;4.43;4.10;;;4.80;99.90;4.80;100464.00;;;;5114741;28;20629;-80
2021/12/11 00:18:10;;;;;;;2.70;2.60;;;4.90;99.90;5.10;100458.00;;;;5113950;28;20904;-80
2021/12/11 00:21:04;;;;;;;3.23;3.03;;;5.10;99.90;5.10;100464.00;;;;5114527;28;20265;-80
2021/12/11 00:23:49;;;;;;;0.60;0.60;;;5.20;99.90;5.20;100473.00;;;;5113614;28;20196;-79
2021/12/11 00:26:36;;;;;;;1.70;1.60;;;5.30;99.90;5.10;100479.00;;;;5115950;28;20208;-78
2021/12/11 00:29:09;;;;;;;2.67;2.47;;;5.20;99.90;5.20;100482.00;;;;5096994;28;20211;-78
2021/12/11 00:31:37;;;;;;;0.97;0.70;;;5.30;99.90;4.80;100487.00;;;;5113304;28;20235;-79
2021/12/11 00:34:15;;;;;;;0.60;0.60;;;5.10;99.90;4.80;100483.00;;;;5113918;28;20169;-79
2021/12/11 00:37:03;;;;;;;4.20;3.90;;;5.10;99.90;4.70;100455.00;;;;5097292;28;20173;-79
2021/12/11 00:39:59;;;;;;;0.80;0.80;;;5.10;99.90;4.90;100454.00;;;;5114404;28;20210;-81
2021/12/11 00:42:34;;;;;;;2.63;2.43;;;5.20;99.90;4.90;100517.00;;;;5097112;28;20285;-79
2021/12/11 00:45:16;;;;;;;0.50;0.50;;;5.20;99.90;5.30;100517.00;;;;5114298;28;20209;-76
2021/12/11 00:48:04;;;;;;;2.77;2.57;;;5.40;99.90;5.10;100518.00;;;;5096691;28;20232;-78
2021/12/11 00:50:50;;;;;;;2.60;1.80;;;5.40;99.90;4.90;100511.00;;;;5096864;28;20322;-79
2021/12/11 00:53:48;;;;;;;3.77;3.47;;;5.30;99.90;5.20;100517.00;;;;5114179;28;20212;-79
2021/12/11 00:56:22;;;;;;;2.90;2.67;;;5.40;99.90;5.30;100518.00;;;;5112987;28;20175;-78
2021/12/11 00:59:06;;;;;;;1.93;1.83;;;5.50;99.90;5.80;100525.00;;;;5114081;28;20180;-79
2021/12/11 01:01:50;;;;;;;0.47;0.47;;;5.70;99.90;6.10;100527.00;;;;5096655;28;20525;-79
2021/12/11 01:04:25;;;;;;;0.43;0.43;;;5.90;99.90;6.20;100523.00;;;;5113707;28;20229;-77
2021/12/11 01:07:07;;;;;;;1.20;1.20;;;6.10;99.90;5.90;100523.00;;;;5113666;28;20171;-79
2021/12/11 01:09:47;;;;;;;1.80;1.70;;;5.90;99.90;6.10;100533.00;;;;5096853;28;20220;-79
2021/12/11 01:12:27;;;;;;;1.20;1.10;;;6.00;99.90;5.80;100526.00;;;;5113150;28;20203;-79
2021/12/11 01:15:16;;;;;;;1.27;1.20;;;5.90;99.90;5.90;100496.00;;;;5112673;28;20180;-78
2021/12/11 01:21:28;;;;;;;0.70;0.70;;;5.90;99.90;6.30;100537.00;;;;5113897;28;20165;-78
2021/12/11 01:26:50;;;;;;;0.90;0.90;;;6.20;99.90;6.70;100544.00;;;;5113466;28;20641;-79
2021/12/11 01:29:23;;;;;;;0.60;0.60;;;6.40;99.90;7.00;100569.00;;;;5113080;28;20178;-78
2021/12/11 01:31:58;;;;;;;1.43;1.33;;;6.70;99.90;6.90;100566.00;;;;5112985;28;20211;-78
2021/12/11 01:34:30;;;;;;;0.60;0.60;;;6.60;99.90;7.00;100512.00;;;;5112281;28;20286;-79
2021/12/11 01:37:11;;;;;;;0.60;0.60;;;6.70;99.90;6.90;100531.00;;;;5112768;28;20159;-78
2021/12/11 01:39:51;;;;;;;0.60;0.60;;;6.70;99.90;6.80;100576.00;;;;5096106;28;20267;-78
2021/12/11 01:42:33;;;;;;;0.60;0.60;;;6.80;99.90;7.10;100579.00;;;;5096421;28;20213;-78
2021/12/11 01:45:13;;;;;;;0.70;0.70;;;6.90;99.90;7.20;100587.00;;;;5096314;28;20275;-77
2021/12/11 01:47:51;;;;;;;0.60;0.60;;;7.00;99.90;7.30;100594.00;;;;5113158;28;20185;-76
2021/12/11 01:50:37;;;;;;;1.10;1.10;;;6.90;99.90;6.90;100597.00;;;;5095759;28;20179;-78
2021/12/11 01:53:27;;;;;;;0.70;0.70;;;6.90;99.90;7.10;100603.00;;;;5112792;28;20297;-79
2021/12/11 01:56:14;;;;;;;0.60;0.60;;;6.90;99.90;7.20;100609.00;;;;5112917;28;20169;-78
2021/12/11 01:58:58;;;;;;;0.60;0.60;;;7.10;99.90;7.20;100626.00;;;;5095675;28;20182;-75
2021/12/11 02:01:45;;;;;;;0.70;0.70;;;7.10;99.90;6.90;100634.00;;;;5096127;28;20189;-75
2021/12/11 02:04:28;;;;;;;1.10;1.00;;;7.10;99.90;7.20;100648.00;;;;5095026;28;20637;-75
2021/12/11 02:07:10;;;;;;;0.70;0.70;;;7.00;99.90;7.00;100643.00;;;;5096269;28;20197;-75
2021/12/11 02:09:39;;;;;;;0.60;0.60;;;7.00;99.90;7.40;100649.00;;;;5112488;28;20530;-75
2021/12/11 02:12:20;;;;;;;0.80;0.80;;;7.10;99.90;7.10;100621.00;;;;5112296;28;20208;-77
2021/12/11 02:14:51;;;;;;;0.63;0.63;;;7.20;99.90;7.40;100648.00;;;;5112293;28;20182;-78
2021/12/11 02:17:52;;;;;;;0.70;0.70;;;7.20;99.90;6.90;100660.00;;;;5112436;28;20169;-79
2021/12/11 02:20:38;;;;;;;0.60;0.60;;;7.10;99.90;7.20;100673.00;;;;5112170;28;20197;-79
2021/12/11 02:23:05;;;;;;;0.60;0.60;;;7.20;99.90;7.10;100638.00;;;;5112520;28;20652;-79
2021/12/11 02:25:41;;;;;;;0.80;0.80;;;7.20;99.90;7.40;100689.00;;;;5112491;28;20186;-77
2021/12/11 02:28:30;;;;;;;1.90;0.97;;;7.20;99.90;7.60;100653.00;;;;5094510;28;20190;-79
2021/12/11 02:31:15;;;;;;;0.60;0.60;;;7.30;99.90;7.50;100698.00;;;;5111775;28;20168;-76
2021/12/11 02:34:10;;;;;;;1.17;1.17;;;7.40;99.90;7.60;100704.00;;;;5112215;28;20600;-76
2021/12/11 02:36:56;;;;;;;0.70;0.70;;;7.40;99.90;7.60;100709.00;;;;5111540;28;20278;-77
2021/12/11 02:39:54;;;;;;;0.70;0.70;;;7.40;99.90;7.50;100663.00;;;;5112321;28;20248;-77
2021/12/11 02:42:33;;;;;;;1.00;1.00;;;7.30;99.90;7.70;100713.00;;;;5112265;28;20179;-79
2021/12/11 02:45:21;;;;;;;0.70;0.70;;;7.40;99.90;7.40;100687.00;;;;5112363;28;20262;-78
2021/12/11 02:48:02;;;;;;;0.80;0.80;;;7.30;99.90;7.80;100718.00;;;;5112131;28;20185;-78
2021/12/11 02:50:49;;;;;;;0.80;0.80;;;7.40;99.90;7.70;100673.00;;;;5095187;28;20188;-79
2021/12/11 02:53:36;;;;;;;0.80;0.80;;;7.40;99.90;7.50;100748.00;;;;5112099;28;20303;-80
2021/12/11 02:56:16;;;;;;;1.00;1.00;;;7.40;99.90;7.30;100740.00;;;;5095010;28;20214;-79
2021/12/11 02:58:53;;;;;;;0.73;0.73;;;7.40;99.90;7.70;100751.00;;;;5095494;28;20263;-78
2021/12/11 03:01:28;;;;;;;0.70;0.70;;;7.40;99.90;7.80;100749.00;;;;5094768;28;20187;-78
2021/12/11 03:04:29;;;;;;;0.80;0.80;;;7.60;99.90;7.70;100743.00;;;;5111280;28;20724;-78
2021/12/11 03:07:01;;;;;;;0.80;0.80;;;7.40;99.90;7.90;100756.00;;;;5112183;28;20247;-76
2021/12/11 03:09:34;;;;;;;0.90;0.90;;;7.50;99.90;8.00;100737.00;;;;5095719;28;20183;-76
2021/12/11 03:12:04;;;;;;;1.60;1.60;;;7.60;99.90;7.70;100726.00;;;;5111719;28;20191;-78
2021/12/11 03:14:31;;;;;;;0.73;0.73;;;7.50;99.90;7.40;100744.00;;;;5094923;28;20273;-78
2021/12/11 03:16:58;;;;;;;0.90;0.90;;;7.50;99.90;7.60;100774.00;;;;5093825;28;20186;-78
2021/12/11 03:19:31;;;;;;;0.90;0.90;;;7.40;99.90;7.70;100765.00;;;;5114549;28;20165;-78
2021/12/11 03:22:02;;;;;;;0.90;0.90;;;7.40;99.90;8.00;100781.00;;;;5098237;28;20657;-75
2021/12/11 03:24:33;;;;;;;1.00;1.00;;;7.60;99.90;7.80;100776.00;;;;5115323;28;20181;-75
2021/12/11 03:27:07;;;;;;;0.90;0.90;;;7.60;99.90;8.00;100790.00;;;;5115591;28;20544;-78
2021/12/11 03:29:44;;;;;;;0.90;0.90;;;7.70;99.90;7.40;100797.00;;;;5098349;28;20184;-77
2021/12/11 03:32:16;;;;;;;1.00;1.00;;;7.50;99.90;7.90;100802.00;;;;5098248;28;20224;-77
2021/12/11 03:34:56;;;;;;;1.00;1.00;;;7.60;99.90;7.60;100770.00;;;;5114780;28;20184;-74
2021/12/11 03:37:33;;;;;;;0.90;0.90;;;7.50;99.90;8.00;100813.00;;;;5098442;28;20179;-77
2021/12/11 03:40:04;;;;;;;1.00;1.00;;;7.60;99.90;7.80;100803.00;;;;5098917;28;20547;-77
2021/12/11 03:42:44;;;;;;;0.93;0.93;;;7.60;99.90;7.80;100811.00;;;;5115299;28;20598;-77
2021/12/11 03:45:19;;;;;;;1.00;1.00;;;7.60;99.90;8.20;100781.00;;;;5115260;28;20265;-80
2021/12/11 03:47:52;;;;;;;1.00;1.00;;;7.80;99.90;7.90;100818.00;;;;5098373;28;20243;-76
2021/12/11 03:50:21;;;;;;;1.10;1.10;;;7.70;99.90;7.80;100824.00;;;;5098573;28;20182;-76
2021/12/11 03:52:49;;;;;;;1.00;1.00;;;7.80;99.90;7.80;100837.00;;;;5098300;28;20672;-75
2021/12/11 03:55:31;;;;;;;1.20;1.20;;;7.60;99.90;8.10;100843.00;;;;5115380;28;20186;-77
2021/12/11 03:58:09;;;;;;;1.03;1.03;;;7.70;99.90;8.10;100846.00;;;;5115269;28;20175;-79
2021/12/11 04:00:46;;;;;;;1.10;1.10;;;7.70;99.90;7.40;100839.00;;;;5097037;28;20186;-79
2021/12/11 04:03:16;;;;;;;1.10;1.10;;;7.70;99.90;7.80;100850.00;;;;5096915;28;20712;-78
2021/12/11 04:05:48;;;;;;;1.20;1.20;;;7.60;99.90;7.50;100837.00;;;;5097608;28;20198;-81
2021/12/11 04:08:22;;;;;;;1.10;1.10;;;7.40;99.90;7.50;100853.00;;;;5115105;28;20171;-81
2021/12/11 04:10:51;;;;;;;1.30;1.30;;;7.40;99.90;7.60;100813.00;;;;5097860;28;20661;-80
2021/12/11 04:13:21;;;;;;;1.40;1.40;;;7.20;99.90;7.70;100869.00;;;;5096620;28;20245;-80
2021/12/11 04:15:52;;;;;;;1.50;1.50;;;7.30;99.90;7.40;100860.00;;;;5115312;28;20261;-80
2021/12/11 04:18:19;;;;;;;1.40;1.40;;;7.20;99.90;7.30;100850.00;;;;5096886;28;20550;-80
2021/12/11 04:20:48;;;;;;;1.30;1.30;;;7.20;99.90;7.60;100865.00;;;;5097448;28;20187;-78
2021/12/11 04:23:15;;;;;;;1.30;1.30;;;7.30;99.90;7.60;100836.00;;;;5097164;28;20656;-78
2021/12/11 04:25:53;;;;;;;1.30;1.30;;;7.30;99.90;7.30;100872.00;;;;5112999;28;20182;-78
2021/12/11 04:28:32;;;;;;;1.30;1.30;;;7.20;99.90;7.60;100868.00;;;;5096674;28;20244;-79
2021/12/11 04:31:10;;;;;;;1.30;1.30;;;7.40;99.90;7.50;100871.00;;;;5115838;28;20746;-79
2021/12/11 04:33:49;;;;;;;1.30;1.30;;;7.30;99.90;7.90;100848.00;;;;5097540;28;20190;-77
2021/12/11 04:36:37;;;;;;;1.30;1.30;;;7.40;99.90;7.60;100887.00;;;;5115209;28;20173;-78
2021/12/11 04:39:09;;;;;;;1.40;1.40;;;7.40;99.90;7.40;100882.00;;;;5114483;28;20537;-77
2021/12/11 04:41:48;;;;;;;1.20;1.20;;;7.40;99.90;7.10;100887.00;;;;5096514;28;20656;-77
2021/12/11 04:44:22;;;;;;;1.40;1.40;;;7.10;99.90;7.40;100885.00;;;;5113843;28;20759;-78
2021/12/11 04:46:49;;;;;;;1.40;1.40;;;7.20;99.90;7.20;100888.00;;;;5096993;28;20181;-78
2021/12/11 04:50:05;;;;;;;1.40;1.40;;;7.20;99.90;7.30;100897.00;;;;5114408;28;20183;-78
2021/12/11 04:52:18;;;;;;;1.30;1.30;;;7.10;99.90;7.70;100915.00;;;;5102389;28;20204;-78
2021/12/11 04:55:05;;;;;;;1.30;1.30;;;7.30;99.90;7.30;100885.00;;;;5097862;28;20186;-79
2021/12/11 05:04:12;;;;;;;1.37;1.37;;;7.20;99.90;7.40;100927.00;;;;5114057;28;20246;-79
2021/12/11 05:11:34;;;;;;;1.33;1.33;;;7.20;99.90;7.30;100945.00;;;;5114877;28;20197;-79
2021/12/11 05:14:10;;;;;;;1.30;1.30;;;7.20;99.90;7.50;100941.00;;;;5097449;28;20177;-77
2021/12/11 05:16:36;;;;;;;1.33;1.33;;;7.20;99.90;7.50;100938.00;;;;5112095;28;20209;-79
2021/12/11 05:19:05;;;;;;;1.60;1.60;;;7.30;99.90;7.60;100956.00;;;;5113420;28;20266;-80
2021/12/11 05:21:33;;;;;;;1.73;1.73;;;7.20;99.90;7.60;100941.00;;;;5113074;28;20174;-79
2021/12/11 05:24:03;;;;;;;1.50;1.50;;;7.30;99.90;7.40;100957.00;;;;5096348;28;20748;-79
2021/12/11 05:26:29;;;;;;;1.30;1.30;;;7.20;99.90;7.20;100963.00;;;;5096237;28;20182;-77
2021/12/11 05:28:55;;;;;;;1.30;1.30;;;7.10;99.90;7.40;100952.00;;;;5113282;28;20169;-78
2021/12/11 05:31:24;;;;;;;1.17;1.17;;;7.10;99.90;7.30;100978.00;;;;5112798;28;20189;-77
2021/12/11 05:33:56;;;;;;;1.10;1.10;;;7.10;99.90;6.90;100959.00;;;;5112862;28;20702;-78
2021/12/11 05:36:27;;;;;;;1.40;1.40;;;6.90;99.90;6.70;100940.00;;;;5112805;28;20242;-78
2021/12/11 05:39:00;;;;;;;1.53;1.53;;;6.80;99.90;6.60;100972.00;;;;5112869;28;20187;-78
2021/12/11 05:41:26;;;;;;;0.90;0.90;;;6.70;99.90;6.40;100975.00;;;;5111245;28;20177;-77
2021/12/11 05:43:55;;;;;;;1.00;1.00;;;6.60;99.90;6.30;100988.00;;;;5112973;28;20174;-77
2021/12/11 05:46:21;;;;;;;1.00;1.00;;;6.50;99.90;6.30;100985.00;;;;5112817;28;20172;-77
2021/12/11 05:48:52;;;;;;;1.27;1.27;;;6.50;99.90;6.40;100996.00;;;;5112354;28;20236;-77
2021/12/11 05:51:22;;;;;;;1.40;1.17;;;6.40;99.90;6.50;100994.00;;;;5113088;28;20247;-77
2021/12/11 05:54:00;;;;;;;1.00;1.00;;;6.40;99.90;6.50;101002.00;;;;5113402;28;20248;-77
2021/12/11 05:56:26;;;;;;;1.10;1.10;;;6.40;99.90;6.10;100996.00;;;;5112292;28;20179;-77
2021/12/11 05:58:58;;;;;;;0.90;0.90;;;6.20;99.90;6.10;101004.00;;;;5112239;28;20187;-77
2021/12/11 06:01:40;;;;;;;1.13;1.13;;;6.20;99.90;6.10;101015.00;;;;5114142;28;20183;-77
2021/12/11 06:04:28;;;;;;;0.90;0.90;;;6.20;99.90;6.30;100973.00;;;;5094753;28;20346;-77
2021/12/11 06:06:58;;;;;;;0.90;0.90;;;6.20;99.90;6.00;101013.00;;;;5096361;28;20540;-77
2021/12/11 06:09:33;;;;;;;1.10;1.10;;;6.20;99.90;6.10;101039.00;;;;5112686;28;20171;-78
2021/12/11 06:12:10;;;;;;;1.00;1.00;;;6.20;99.90;6.00;101025.00;;;;5111950;28;20247;-79
2021/12/11 06:14:48;;;;;;;1.23;1.23;;;6.00;99.90;5.50;101037.00;;;;5095679;28;20210;-79
2021/12/11 06:17:27;;;;;;;0.90;0.90;;;5.90;99.90;5.90;101055.00;;;;5112757;28;20199;-80
2021/12/11 06:20:10;;;;;;;0.90;0.90;;;5.90;99.90;6.00;101061.00;;;;5095654;28;20177;-80
2021/12/11 06:22:51;;;;;;;0.90;0.90;;;5.80;99.90;5.90;101067.00;;;;5112444;28;20242;-80
2021/12/11 06:25:31;;;;;;;0.90;0.90;;;5.80;99.90;5.90;101074.00;;;;5112027;28;20187;-82
2021/12/11 06:28:09;;;;;;;1.43;1.33;;;5.80;99.90;5.60;101078.00;;;;5112375;28;20179;-79
2021/12/11 06:30:49;;;;;;;0.87;0.87;;;5.80;99.90;5.80;101093.00;;;;5113925;28;20264;-79
2021/12/11 06:33:26;;;;;;;2.47;1.77;;;5.80;99.90;5.50;101046.00;;;;5111389;28;20262;-79
2021/12/11 06:36:14;;;;;;;3.50;2.40;;;5.60;99.90;5.50;101049.00;;;;5112973;28;20232;-82
2021/12/11 06:38:46;;;;;;;0.70;0.70;;;5.60;99.90;5.60;101092.00;;;;5113672;28;20173;-83
2021/12/11 06:41:18;;;;;;;0.70;0.70;;;5.60;99.90;5.60;101106.00;;;;5095479;28;20172;-81
2021/12/11 06:43:51;;;;;;;0.70;0.70;;;5.60;99.90;5.70;101058.00;;;;5095527;28;20271;-81
2021/12/11 06:46:21;;;;;;;0.80;0.80;;;5.70;99.90;5.60;101094.00;;;;5112199;28;20182;-80
2021/12/11 06:48:53;;;;;;;0.90;0.90;;;5.60;99.90;5.80;101114.00;;;;5095335;28;20191;-80
2021/12/11 06:51:28;;;;;;;1.73;1.73;;;5.70;99.90;5.70;101120.00;;;;5111995;28;20185;-80
2021/12/11 06:54:05;;;;;;;1.13;1.13;;;5.70;99.90;5.70;101125.00;;;;5096864;28;20530;-78
2021/12/11 06:56:39;;;;;;;1.60;1.60;;;5.70;99.90;5.50;101126.00;;;;5099475;28;20233;-78
2021/12/11 06:59:13;;;;;;;1.97;1.87;;;5.60;99.90;5.50;101129.00;;;;5099485;28;20186;-80
2021/12/11 07:01:43;;;;;;;5.60;3.93;;;5.50;99.90;5.60;101079.00;;;;5099460;28;20178;-81
2021/12/11 07:04:14;;;;;;;3.27;3.07;;;5.60;99.90;5.30;101145.00;;;;5099191;28;20202;-81
2021/12/11 07:06:48;;;;;;;8.53;1.40;;;5.40;99.90;5.20;101125.00;;;;5099161;28;20229;-81
2021/12/11 07:09:19;;;;;;;4.93;2.20;;;5.40;99.90;5.00;101170.00;;;;5099333;28;20546;-82
2021/12/11 07:11:47;;;;;;;2.80;1.80;;;5.30;99.90;5.10;101165.00;;;;5116472;28;20243;-81
2021/12/11 07:14:17;;;;;;;0.60;0.60;;;5.30;99.90;4.80;101131.00;;;;5098524;28;20184;-80
2021/12/11 07:16:44;;;;;;;2.00;1.73;;;5.20;99.90;4.70;101187.00;;;;5098594;28;20620;-80
2021/12/11 07:19:11;;;;;;;0.50;0.50;;;5.10;99.90;5.00;101198.00;;;;5115030;28;20191;-81
2021/12/11 07:21:38;;;;;;;1.10;1.10;;;5.10;99.90;5.20;101156.00;;;;5115460;28;20184;-81
2021/12/11 07:24:15;;;;;;;0.67;0.67;;;5.20;99.90;4.90;101198.00;;;;5099327;28;20184;-80
2021/12/11 07:26:50;;;;;;;1.53;1.43;;;5.30;99.90;5.00;101204.00;;;;5098456;28;20176;-81
2021/12/11 07:29:20;;;;;;;1.17;1.17;;;5.20;99.90;5.30;101218.00;;;;5099085;28;20273;-80
2021/12/11 07:31:51;;;;;;;0.70;0.70;;;5.30;99.90;5.10;101189.00;;;;5097725;28;20682;-80
2021/12/11 07:34:25;;;;;;;29.93;4.73;;;5.30;99.90;4.90;101216.00;;;;5115488;28;20180;-81
2021/12/11 07:36:52;;;;;;;1.43;1.40;;;5.20;99.90;5.30;101219.00;;;;5115502;28;20180;-81
2021/12/11 07:39:25;;;;;;;1.20;1.17;;;5.30;99.90;5.10;101220.00;;;;5098597;28;20211;-79
2021/12/11 07:41:53;;;;;;;1.90;1.33;;;5.20;99.90;5.20;101184.00;;;;5098417;28;20187;-79
2021/12/11 07:44:24;;;;;;;1.00;1.00;;;5.30;99.90;4.70;101241.00;;;;5098291;28;20655;-78
2021/12/11 07:46:55;;;;;;;1.30;1.30;;;5.10;99.90;4.90;101207.00;;;;5097323;28;20184;-81
2021/12/11 07:49:36;;;;;;;0.70;0.70;;;5.10;99.90;4.90;101256.00;;;;5115140;28;20183;-81
2021/12/11 07:52:03;;;;;;;1.43;1.37;;;5.20;99.90;5.20;101259.00;;;;5097344;28;20199;-78
2021/12/11 07:54:32;;;;;;;3.80;2.20;;;5.20;99.90;5.00;101266.00;;;;5098324;28;20186;-78
2021/12/11 07:56:59;;;;;;;5.03;1.77;;;5.20;99.90;5.20;101253.00;;;;5115031;28;20229;-78
2021/12/11 07:59:25;;;;;;;1.33;1.33;;;5.20;99.90;4.90;101280.00;;;;5115124;28;20180;-78
2021/12/11 08:01:53;;;;;;;2.53;2.33;;;5.10;99.90;5.00;101277.00;;;;5115440;28;20171;-79
2021/12/11 08:04:24;;;;;;;8.97;2.03;;;5.20;99.90;5.10;101268.00;;;;5096444;28;20188;-76
2021/12/11 08:06:56;;;;;;;0.90;0.90;;;5.30;99.90;4.90;101265.00;;;;5097962;28;20205;-76
2021/12/11 08:09:23;;;;;;;1.57;1.33;;;5.20;99.90;5.10;101242.00;;;;5115948;28;20176;-76
2021/12/11 08:11:57;;;;;;;1.40;1.40;;;5.20;99.90;5.00;101293.00;;;;5114338;28;20701;-80
2021/12/11 08:14:24;;;;;;;2.10;2.00;;;5.20;99.90;4.60;101291.00;;;;5114808;28;20171;-79
2021/12/11 08:16:56;;;;;;;1.73;1.70;;;5.10;99.90;4.60;101295.00;;;;5113735;28;20176;-80
2021/12/11 08:19:27;;;;;;;1.70;1.70;;;5.00;99.90;4.80;101272.00;;;;5097965;28;20234;-79
2021/12/11 08:21:59;;;;;;;2.10;2.00;;;5.00;99.90;4.80;101280.00;;;;5097191;28;20548;-80
2021/12/11 08:24:35;;;;;;;0.77;0.77;;;5.00;99.90;4.90;101287.00;;;;5097852;28;20179;-69
2021/12/11 08:27:09;;;;;;;3.10;2.63;;;5.10;99.90;4.50;101259.00;;;;5115017;28;20180;-71
2021/12/11 08:29:48;;;;;;;1.63;1.57;;;4.90;99.90;4.80;101309.00;;;;5114769;28;20179;-76
2021/12/11 08:32:22;;;;;;;0.90;0.90;;;4.90;99.90;4.50;101272.00;;;;5113707;28;20219;-75
2021/12/11 08:34:54;;;;;;;2.73;2.63;;;4.80;99.90;5.00;101312.00;;;;5113581;28;20325;-75
2021/12/11 08:37:26;;;;;;;2.07;1.93;;;5.00;99.90;4.70;101287.00;;;;5097437;28;20184;-75
2021/12/11 08:39:58;;;;;;;1.67;1.57;;;5.00;99.90;4.50;101330.00;;;;5114382;28;20176;-75
2021/12/11 08:42:34;;;;;;;9.83;2.33;;;4.90;99.90;4.20;101327.00;;;;5096750;28;20184;-75
2021/12/11 08:45:09;;;;;;;1.57;1.47;;;4.80;99.90;4.20;101330.00;;;;5113991;28;20183;-76
2021/12/11 08:47:41;;;;;;;1.00;1.00;;;4.70;99.90;4.40;101337.00;;;;5113779;28;20179;-79
2021/12/11 08:50:22;;;;;;;3.57;2.43;;;4.80;99.90;4.60;101343.00;;;;5105961;28;20196;-79
2021/12/11 08:52:58;;;;;;;3.30;2.83;;;4.90;99.90;4.70;101356.00;;;;5112904;28;20288;-75
2021/12/11 08:55:37;;;;;;;8.30;4.43;;;5.00;99.90;4.70;101362.00;;;;5096489;28;20176;-75
2021/12/11 08:58:16;;;;;;;2.60;2.50;;;5.00;99.90;5.00;101322.00;;;;5114185;28;20652;-75
2021/12/11 09:01:00;;;;;;;1.27;1.27;;;5.20;99.90;4.90;101359.00;;;;5115647;28;20172;-74
2021/12/11 09:03:52;;;;;;;4.40;3.07;;;5.20;99.90;4.80;101363.00;;;;5113592;28;20180;-77
2021/12/11 09:06:52;;;;;;;2.30;1.47;;;5.30;99.90;5.00;101377.00;;;;5093927;28;20652;-76
2021/12/11 09:09:32;;;;;;;3.17;1.97;;;5.30;99.90;5.20;101381.00;;;;5093752;28;20536;-77
2021/12/11 09:12:22;;;;;;;3.07;2.87;;;5.30;99.90;4.90;101386.00;;;;5077232;28;20200;-72
2021/12/11 09:15:02;;;;;;;7.30;2.07;;;5.40;99.90;5.50;101401.00;;;;5092084;28;20189;-71
2021/12/11 09:18:09;;;;;;;4.67;3.87;;;5.60;99.90;5.70;101405.00;;;;5099463;28;20192;-71
2021/12/11 09:20:46;;;;;;;2.17;1.43;;;5.80;99.90;5.30;101406.00;;;;5081550;28;20208;-70
2021/12/11 09:23:50;;;;;;;6.63;3.53;;;5.60;99.90;5.40;101410.00;;;;5113511;28;20184;-70
2021/12/11 09:26:35;;;;;;;2.27;2.17;;;5.70;99.90;5.60;101406.00;;;;5114743;27;20174;-70
2021/12/11 09:29:40;;;;;;;7.60;3.23;;;5.80;99.90;5.40;101393.00;;;;5096403;28;20187;-71
2021/12/11 09:32:25;;;;;;;1.77;1.67;;;5.80;99.90;5.30;101420.00;;;;5112930;28;20301;-72
2021/12/11 09:35:24;;;;;;;5.80;3.43;;;5.70;99.90;5.40;101415.00;;;;5114283;28;20184;-72
2021/12/11 09:38:19;;;;;;;1.53;1.43;;;5.70;99.90;6.00;101424.00;;;;5113147;28;20172;-71
2021/12/11 09:40:59;;;;;;;9.23;3.40;;;6.00;99.90;6.00;101437.00;;;;5096384;28;20517;-70
2021/12/11 09:43:48;;;;;;;8.43;3.47;;;6.10;99.90;5.70;101444.00;;;;5110710;28;20201;-70
2021/12/11 09:46:37;;;;;;;2.63;2.03;;;6.10;99.90;5.30;101402.00;;;;5092483;28;20177;-71
2021/12/11 09:49:13;;;;;;;5.97;3.97;;;5.90;99.90;5.40;101447.00;;;;5092701;28;20624;-71
2021/12/11 09:51:49;;;;;;;3.23;2.93;;;5.80;99.90;5.90;101460.00;;;;5092561;28;20235;-69
2021/12/11 09:54:34;;;;;;;2.60;1.90;;;6.10;99.90;5.80;101454.00;;;;5076286;28;20181;-70
2021/12/11 09:57:19;;;;;;;3.97;2.73;;;6.10;99.90;6.20;101462.00;;;;5074482;28;20186;-69
2021/12/11 09:59:59;;;;;;;4.20;2.77;;;6.20;99.90;6.00;101462.00;;;;5075069;28;20273;-68
2021/12/11 10:02:37;;;;;;;1.33;1.33;;;6.20;99.90;5.70;101471.00;;;;5075881;28;20198;-68
2021/12/11 10:05:35;;;;;;;5.27;3.43;;;6.20;99.90;6.30;101446.00;;;;5074604;28;20314;-68
2021/12/11 10:08:37;;;;;;;0.80;0.80;;;6.40;99.90;6.00;101415.00;;;;5098902;28;20186;-68
2021/12/11 10:12:01;;;;;;;2.10;1.90;;;6.40;99.90;6.00;101467.00;;;;5098830;28;20182;-68
2021/12/11 10:14:40;;;;;;;2.00;1.47;;;6.40;99.90;6.20;101465.00;;;;5051508;28;20186;-69
2021/12/11 10:17:20;;;;;;;2.17;1.23;;;6.50;99.90;6.30;101470.00;;;;5100227;28;20552;-68
2021/12/11 10:19:56;;;;;;;0.90;0.90;;;6.50;99.90;6.20;101472.00;;;;5086670;28;20190;-70
2021/12/11 10:33:29;;;;;;;1.33;1.23;;;6.60;99.90;6.20;101492.00;;;;5121736;27;1315758;-71
2021/12/11 10:36:10;;;;;;;1.03;1.03;;;6.60;99.90;6.70;101477.00;;;;5122431;27;20179;-71
2021/12/11 10:38:45;;;;;;;0.90;0.90;;;6.80;99.90;6.60;101481.00;;;;5121858;27;20185;-71
2021/12/11 10:41:16;;;;;;;1.50;1.47;;;7.00;99.90;7.20;101482.00;;;;5121523;27;20659;-70
2021/12/11 10:43:57;;;;;;;3.80;3.50;;;7.20;99.90;6.70;101457.00;;;;5137291;27;20212;-71
2021/12/11 10:46:36;;;;;;;2.60;2.17;;;7.10;99.90;7.20;101456.00;;;;5140160;27;20190;-71
2021/12/11 10:49:14;;;;;;;1.47;1.37;;;7.30;99.90;6.70;101498.00;;;;5104622;27;20280;-71
2021/12/11 10:52:06;;;;;;;0.90;0.90;;;7.30;99.90;6.90;101495.00;;;;5119302;27;20196;-72
2021/12/11 10:54:45;;;;;;;0.80;0.80;;;7.30;99.90;7.90;101515.00;;;;5121016;27;20281;-71
2021/12/11 10:57:29;;;;;;;1.80;1.70;;;7.70;99.90;7.70;101480.00;;;;5105196;27;20219;-72
2021/12/11 11:00:14;;;;;;;1.23;1.13;;;8.10;99.90;8.60;101511.00;;;;5120635;27;20191;-71
2021/12/11 11:02:54;;;;;;;4.10;2.50;;;8.40;99.90;7.40;101511.00;;;;5136535;27;20183;-71
2021/12/11 11:05:39;;;;;;;0.83;0.77;;;8.00;99.90;8.00;101494.00;;;;5102707;27;20195;-71
2021/12/11 11:08:13;;;;;;;9.73;2.80;;;8.00;99.90;8.40;101512.00;;;;5119853;27;20179;-71
2021/12/11 11:10:56;;;;;;;0.70;0.70;;;8.40;99.90;8.00;101512.00;;;;5118899;27;20695;-71
2021/12/11 11:13:36;;;;;;;1.10;1.07;;;8.20;99.90;7.50;101512.00;;;;5120472;27;20209;-71
2021/12/11 11:16:13;;;;;;;0.87;0.87;;;7.90;99.90;7.60;101504.00;;;;5119646;27;20182;-71
2021/12/11 11:18:48;;;;;;;3.63;2.67;;;7.80;99.90;7.30;101519.00;;;;5105197;27;20180;-71
2021/12/11 11:21:34;;;;;;;0.80;0.80;;;7.60;99.90;7.20;101510.00;;;;5119969;27;20178;-70
2021/12/11 11:24:13;;;;;;;6.43;5.53;;;7.50;99.90;7.30;101528.00;;;;5120172;27;20650;-71
2021/12/11 11:26:51;;;;;;;0.70;0.70;;;7.70;99.90;7.40;101523.00;;;;5137967;27;20187;-71
2021/12/11 11:29:26;;;;;;;1.47;1.47;;;7.70;99.90;7.50;101522.00;;;;5121423;27;20179;-71
2021/12/11 11:32:07;;;;;;;0.97;0.63;;;7.80;99.90;7.50;101474.00;;;;5100880;27;20207;-71
2021/12/11 11:34:44;;;;;;;11.57;3.10;;;7.80;99.90;7.70;101485.00;;;;5112125;27;20534;-71
2021/12/11 11:37:22;;;;;;;5.90;1.50;;;7.90;99.90;7.20;101524.00;;;;5120838;27;20198;-71
2021/12/11 11:39:55;;;;;;;0.70;0.70;;;7.80;99.90;7.80;101523.00;;;;5117223;27;20183;-71
2021/12/11 11:42:35;;;;;;;5.47;3.20;;;8.00;99.90;7.80;101530.00;;;;5102753;27;20602;-71
2021/12/11 11:45:12;;;;;;;2.13;1.37;;;8.00;99.90;7.80;101543.00;;;;5089837;27;20188;-71
2021/12/11 11:47:48;;;;;;;1.87;1.77;;;8.00;99.90;7.70;101538.00;;;;5104810;27;20200;-70
2021/12/11 11:50:27;;;;;;;7.40;1.60;;;8.10;99.90;7.70;101551.00;;;;5120347;27;20643;-70
2021/12/11 11:53:09;;;;;;;0.50;0.50;;;8.10;99.90;7.60;101536.00;;;;5080241;28;20204;-70
2021/12/11 11:55:58;;;;;;;3.43;2.07;;;8.10;99.90;7.60;101558.00;;;;5098266;28;20238;-70
2021/12/11 11:58:38;;;;;;;2.93;2.20;;;8.00;99.90;8.30;101552.00;;;;5094204;28;20187;-70
2021/12/11 12:01:24;;;;;;;12.40;1.53;;;8.30;99.90;8.40;101541.00;;;;5081740;28;20619;-70
2021/12/11 12:04:02;;;;;;;0.60;0.60;;;8.50;99.90;9.10;101563.00;;;;5080286;28;20800;-71
2021/12/11 12:06:35;;;;;;;1.57;1.57;;;8.80;99.90;8.90;101558.00;;;;5098020;28;20188;-70
2021/12/11 12:09:14;;;;;;;0.70;0.70;;;8.90;99.90;9.80;101567.00;;;;5098048;28;20184;-71
2021/12/11 12:11:44;;;;;;;1.67;1.57;;;9.40;99.90;9.30;101518.00;;;;5081035;28;20282;-71
2021/12/11 12:14:30;;;;;;;1.83;1.70;;;9.50;99.90;8.20;101550.00;;;;5080805;28;20177;-70
2021/12/11 12:17:03;;;;;;;1.07;1.07;;;8.90;99.90;7.80;101557.00;;;;5098409;28;20173;-71
2021/12/11 12:19:43;;;;;;;3.90;1.13;;;8.40;99.90;7.90;101551.00;;;;5096990;28;20172;-72